sensor_id;sensor_type;location;lat;lon;timestamp;temperature;humidity
2855;DHT22;1435;49.472;10.940;2023-06-10T00:00:46;16.90;99.90
2855;DHT22;1435;49.472;10.940;2023-06-10T00:05:48;16.90;99.90
2855;DHT22;1435;49.472;10.940;2023-06-10T00:10:49;16.80;99.90
2855;DHT22;1435;49.472;10.940;2023-06-10T00:15:52;16.80;99.90
2855;DHT22;1435;49.472;10.940;2023-06-10T00:20:54;16.70;99.90
2855;DHT22;1435;49.472;10.940;2023-06-10T00:25:56;16.70;99.90
2855;DHT22;1435;49.472;10.940;2023-06-10T00:30:59;16.60;99.90
2855;DHT22;1435;49.472;10.940;2023-06-10T00:36:01;16.60;99.90
2855;DHT22;1435;49.472;10.940;2023-06-10T00:41:02;16.60;99.90
2855;DHT22;1435;49.472;10.940;2023-06-10T00:46:05;16.50;99.90
2855;DHT22;1435;49.472;10.940;2023-06-10T00:51:08;16.50;99.90
2855;DHT22;1435;49.472;10.940;2023-06-10T00:56:10;16.50;99.90
2855;DHT22;1435;49.472;10.940;2023-06-10T01:01:13;16.40;99.90
2855;DHT22;1435;49.472;10.940;2023-06-10T01:06:24;16.40;99.90
2855;DHT22;1435;49.472;10.940;2023-06-10T01:11:29;16.30;99.90
2855;DHT22;1435;49.472;10.940;2023-06-10T01:16:37;16.30;99.90
2855;DHT22;1435;49.472;10.940;2023-06-10T01:21:42;16.20;99.90
2855;DHT22;1435;49.472;10.940;2023-06-10T01:26:50;16.20;99.90
2855;DHT22;1435;49.472;10.940;2023-06-10T01:32:00;16.20;99.90
2855;DHT22;1435;49.472;10.940;2023-06-10T01:37:04;16.10;99.90
2855;DHT22;1435;49.472;10.940;2023-06-10T01:42:07;16.10;99.90
2855;DHT22;1435;49.472;10.940;2023-06-10T01:47:10;16.10;99.90
2855;DHT22;1435;49.472;10.940;2023-06-10T01:52:13;16.10;99.90
2855;DHT22;1435;49.472;10.940;2023-06-10T01:57:15;16.00;99.90
2855;DHT22;1435;49.472;10.940;2023-06-10T02:02:17;15.90;99.90
2855;DHT22;1435;49.472;10.940;2023-06-10T02:07:20;15.90;99.90
2855;DHT22;1435;49.472;10.940;2023-06-10T02:12:21;15.90;99.90
2855;DHT22;1435;49.472;10.940;2023-06-10T02:17:23;15.80;99.90
2855;DHT22;1435;49.472;10.940;2023-06-10T02:22:26;15.80;99.90
2855;DHT22;1435;49.472;10.940;2023-06-10T02:27:28;15.80;99.90
2855;DHT22;1435;49.472;10.940;2023-06-10T02:32:30;15.70;99.90
2855;DHT22;1435;49.472;10.940;2023-06-10T02:37:33;15.70;99.90
2855;DHT22;1435;49.472;10.940;2023-06-10T02:42:35;15.60;99.90
2855;DHT22;1435;49.472;10.940;2023-06-10T02:47:37;15.60;99.90
2855;DHT22;1435;49.472;10.940;2023-06-10T02:52:40;15.60;99.90
2855;DHT22;1435;49.472;10.940;2023-06-10T02:57:42;15.60;99.90
2855;DHT22;1435;49.472;10.940;2023-06-10T03:02:44;15.50;99.90
2855;DHT22;1435;49.472;10.940;2023-06-10T03:07:47;15.50;99.90
2855;DHT22;1435;49.472;10.940;2023-06-10T03:12:49;15.50;99.90
2855;DHT22;1435;49.472;10.940;2023-06-10T03:17:50;15.40;99.90
2855;DHT22;1435;49.472;10.940;2023-06-10T03:22:53;15.30;99.90
2855;DHT22;1435;49.472;10.940;2023-06-10T03:27:55;15.30;99.90
2855;DHT22;1435;49.472;10.940;2023-06-10T03:32:57;15.30;99.90
2855;DHT22;1435;49.472;10.940;2023-06-10T03:38:00;15.30;99.90
2855;DHT22;1435;49.472;10.940;2023-06-10T03:43:01;15.30;99.90
2855;DHT22;1435;49.472;10.940;2023-06-10T03:48:03;15.30;99.90
2855;DHT22;1435;49.472;10.940;2023-06-10T03:53:08;15.30;99.90
2855;DHT22;1435;49.472;10.940;2023-06-10T03:58:09;15.30;99.90
2855;DHT22;1435;49.472;10.940;2023-06-10T04:03:13;15.30;99.90
2855;DHT22;1435;49.472;10.940;2023-06-10T04:08:17;15.30;99.90
2855;DHT22;1435;49.472;10.940;2023-06-10T04:13:18;15.30;99.90
2855;DHT22;1435;49.472;10.940;2023-06-10T04:18:20;15.30;99.90
2855;DHT22;1435;49.472;10.940;2023-06-10T04:23:24;15.30;99.90
2855;DHT22;1435;49.472;10.940;2023-06-10T04:28:26;15.40;99.90
2855;DHT22;1435;49.472;10.940;2023-06-10T04:33:28;15.40;99.90
2855;DHT22;1435;49.472;10.940;2023-06-10T04:38:31;15.40;99.90
2855;DHT22;1435;49.472;10.940;2023-06-10T04:43:33;15.40;99.90
2855;DHT22;1435;49.472;10.940;2023-06-10T04:48:34;15.50;99.90
2855;DHT22;1435;49.472;10.940;2023-06-10T04:53:38;15.50;99.90
2855;DHT22;1435;49.472;10.940;2023-06-10T04:58:40;15.60;99.90
2855;DHT22;1435;49.472;10.940;2023-06-10T05:03:42;15.60;99.90
2855;DHT22;1435;49.472;10.940;2023-06-10T05:08:45;15.70;99.90
2855;DHT22;1435;49.472;10.940;2023-06-10T05:13:46;15.70;99.90
2855;DHT22;1435;49.472;10.940;2023-06-10T05:18:49;15.80;99.90
2855;DHT22;1435;49.472;10.940;2023-06-10T05:23:53;15.90;99.90
2855;DHT22;1435;49.472;10.940;2023-06-10T05:28:55;16.00;99.90
2855;DHT22;1435;49.472;10.940;2023-06-10T05:33:57;16.00;99.90
2855;DHT22;1435;49.472;10.940;2023-06-10T05:39:00;16.10;99.90
2855;DHT22;1435;49.472;10.940;2023-06-10T05:44:03;16.20;99.90
2855;DHT22;1435;49.472;10.940;2023-06-10T05:49:05;16.20;99.90
2855;DHT22;1435;49.472;10.940;2023-06-10T05:54:08;16.30;99.90
2855;DHT22;1435;49.472;10.940;2023-06-10T05:59:10;16.40;99.90
2855;DHT22;1435;49.472;10.940;2023-06-10T06:04:12;16.40;99.90
2855;DHT22;1435;49.472;10.940;2023-06-10T06:09:15;16.60;99.90
2855;DHT22;1435;49.472;10.940;2023-06-10T06:14:17;16.70;99.90
2855;DHT22;1435;49.472;10.940;2023-06-10T06:19:18;16.70;99.90
2855;DHT22;1435;49.472;10.940;2023-06-10T06:24:21;16.80;99.90
2855;DHT22;1435;49.472;10.940;2023-06-10T06:29:23;16.90;99.90
2855;DHT22;1435;49.472;10.940;2023-06-10T06:34:25;17.00;99.90
2855;DHT22;1435;49.472;10.940;2023-06-10T06:39:28;17.10;99.90
2855;DHT22;1435;49.472;10.940;2023-06-10T06:44:30;17.20;99.90
2855;DHT22;1435;49.472;10.940;2023-06-10T06:49:31;17.30;99.90
2855;DHT22;1435;49.472;10.940;2023-06-10T06:54:34;17.40;99.90
2855;DHT22;1435;49.472;10.940;2023-06-10T06:59:36;17.50;99.90
2855;DHT22;1435;49.472;10.940;2023-06-10T07:04:38;17.60;99.90
2855;DHT22;1435;49.472;10.940;2023-06-10T07:09:42;17.70;99.90
2855;DHT22;1435;49.472;10.940;2023-06-10T07:14:44;17.90;99.90
2855;DHT22;1435;49.472;10.940;2023-06-10T07:19:46;18.00;99.90
2855;DHT22;1435;49.472;10.940;2023-06-10T07:24:49;18.10;99.90
2855;DHT22;1435;49.472;10.940;2023-06-10T07:29:52;18.30;99.90
2855;DHT22;1435;49.472;10.940;2023-06-10T07:34:54;18.50;99.90
2855;DHT22;1435;49.472;10.940;2023-06-10T07:39:57;18.70;99.90
2855;DHT22;1435;49.472;10.940;2023-06-10T07:44:59;18.90;99.90
2855;DHT22;1435;49.472;10.940;2023-06-10T07:50:01;19.10;99.90
2855;DHT22;1435;49.472;10.940;2023-06-10T07:55:05;19.30;99.90
2855;DHT22;1435;49.472;10.940;2023-06-10T08:00:08;19.50;99.90
2855;DHT22;1435;49.472;10.940;2023-06-10T08:05:10;19.70;99.90
2855;DHT22;1435;49.472;10.940;2023-06-10T08:10:13;19.90;99.90
2855;DHT22;1435;49.472;10.940;2023-06-10T08:15:15;20.10;99.90
2855;DHT22;1435;49.472;10.940;2023-06-10T08:20:17;20.30;99.90
2855;DHT22;1435;49.472;10.940;2023-06-10T08:25:21;20.50;99.90
2855;DHT22;1435;49.472;10.940;2023-06-10T08:30:22;20.70;99.90
2855;DHT22;1435;49.472;10.940;2023-06-10T08:35:24;20.80;99.90
2855;DHT22;1435;49.472;10.940;2023-06-10T08:40:27;20.90;99.90
2855;DHT22;1435;49.472;10.940;2023-06-10T08:45:30;21.10;99.90
2855;DHT22;1435;49.472;10.940;2023-06-10T08:50:34;21.20;99.90
2855;DHT22;1435;49.472;10.940;2023-06-10T08:55:38;21.40;99.90
2855;DHT22;1435;49.472;10.940;2023-06-10T09:00:43;21.50;99.90
2855;DHT22;1435;49.472;10.940;2023-06-10T09:05:45;21.60;99.90
2855;DHT22;1435;49.472;10.940;2023-06-10T09:10:48;21.80;99.90
2855;DHT22;1435;49.472;10.940;2023-06-10T09:15:50;21.90;99.90
2855;DHT22;1435;49.472;10.940;2023-06-10T09:20:52;22.10;99.90
2855;DHT22;1435;49.472;10.940;2023-06-10T09:25:58;22.30;99.90
2855;DHT22;1435;49.472;10.940;2023-06-10T09:31:04;22.40;99.90
2855;DHT22;1435;49.472;10.940;2023-06-10T09:36:06;22.60;99.90
2855;DHT22;1435;49.472;10.940;2023-06-10T09:41:09;22.60;99.90
2855;DHT22;1435;49.472;10.940;2023-06-10T09:46:15;22.80;99.90
2855;DHT22;1435;49.472;10.940;2023-06-10T09:51:18;22.80;99.90
2855;DHT22;1435;49.472;10.940;2023-06-10T09:56:21;22.90;99.90
2855;DHT22;1435;49.472;10.940;2023-06-10T10:01:23;23.00;99.90
2855;DHT22;1435;49.472;10.940;2023-06-10T10:06:26;23.20;99.90
2855;DHT22;1435;49.472;10.940;2023-06-10T10:11:30;23.20;99.90
2855;DHT22;1435;49.472;10.940;2023-06-10T10:16:36;23.30;99.90
2855;DHT22;1435;49.472;10.940;2023-06-10T10:21:46;23.30;99.90
2855;DHT22;1435;49.472;10.940;2023-06-10T10:26:54;23.30;99.90
2855;DHT22;1435;49.472;10.940;2023-06-10T10:31:59;23.40;99.90
2855;DHT22;1435;49.472;10.940;2023-06-10T10:37:02;23.40;99.90
2855;DHT22;1435;49.472;10.940;2023-06-10T10:42:07;23.50;99.90
2855;DHT22;1435;49.472;10.940;2023-06-10T10:47:11;23.60;99.90
2855;DHT22;1435;49.472;10.940;2023-06-10T10:52:13;23.60;99.90
2855;DHT22;1435;49.472;10.940;2023-06-10T10:57:18;23.60;99.90
2855;DHT22;1435;49.472;10.940;2023-06-10T11:02:33;23.70;99.90
2855;DHT22;1435;49.472;10.940;2023-06-10T11:07:36;23.70;99.90
2855;DHT22;1435;49.472;10.940;2023-06-10T11:12:54;23.70;99.90
2855;DHT22;1435;49.472;10.940;2023-06-10T11:18:13;23.70;99.90
2855;DHT22;1435;49.472;10.940;2023-06-10T11:23:40;23.70;99.90
2855;DHT22;1435;49.472;10.940;2023-06-10T11:29:08;23.60;99.90
2855;DHT22;1435;49.472;10.940;2023-06-10T11:34:10;23.60;99.90
2855;DHT22;1435;49.472;10.940;2023-06-10T11:39:12;23.60;99.90
2855;DHT22;1435;49.472;10.940;2023-06-10T11:44:15;23.60;99.90
2855;DHT22;1435;49.472;10.940;2023-06-10T11:49:17;23.60;99.90
2855;DHT22;1435;49.472;10.940;2023-06-10T11:54:19;23.70;99.90
2855;DHT22;1435;49.472;10.940;2023-06-10T11:59:26;23.70;99.90
2855;DHT22;1435;49.472;10.940;2023-06-10T12:04:28;23.90;99.90
2855;DHT22;1435;49.472;10.940;2023-06-10T12:09:30;24.00;99.90
2855;DHT22;1435;49.472;10.940;2023-06-10T12:14:53;24.10;99.90
2855;DHT22;1435;49.472;10.940;2023-06-10T12:19:56;24.30;99.90
2855;DHT22;1435;49.472;10.940;2023-06-10T12:24:59;24.30;99.90
2855;DHT22;1435;49.472;10.940;2023-06-10T12:30:04;24.30;99.90
2855;DHT22;1435;49.472;10.940;2023-06-10T12:35:07;24.40;99.90
2855;DHT22;1435;49.472;10.940;2023-06-10T12:40:10;24.60;99.90
2855;DHT22;1435;49.472;10.940;2023-06-10T12:45:14;24.70;99.90
2855;DHT22;1435;49.472;10.940;2023-06-10T12:50:15;24.80;99.90
2855;DHT22;1435;49.472;10.940;2023-06-10T12:55:17;24.90;99.90
2855;DHT22;1435;49.472;10.940;2023-06-10T13:00:28;25.00;99.90
2855;DHT22;1435;49.472;10.940;2023-06-10T13:05:30;25.30;99.90
2855;DHT22;1435;49.472;10.940;2023-06-10T13:10:36;25.40;99.90
2855;DHT22;1435;49.472;10.940;2023-06-10T13:15:41;25.50;99.90
2855;DHT22;1435;49.472;10.940;2023-06-10T13:20:46;25.50;99.90
2855;DHT22;1435;49.472;10.940;2023-06-10T13:25:47;25.50;99.90
2855;DHT22;1435;49.472;10.940;2023-06-10T13:30:51;25.40;99.90
2855;DHT22;1435;49.472;10.940;2023-06-10T13:35:52;25.30;99.90
2855;DHT22;1435;49.472;10.940;2023-06-10T13:40:54;25.30;99.90
2855;DHT22;1435;49.472;10.940;2023-06-10T13:45:57;25.40;99.90
2855;DHT22;1435;49.472;10.940;2023-06-10T13:50:59;25.40;99.90
2855;DHT22;1435;49.472;10.940;2023-06-10T13:56:01;25.60;99.90
2855;DHT22;1435;49.472;10.940;2023-06-10T14:01:04;25.70;99.90
2855;DHT22;1435;49.472;10.940;2023-06-10T14:06:05;25.70;99.70
2855;DHT22;1435;49.472;10.940;2023-06-10T14:11:07;25.70;99.70
2855;DHT22;1435;49.472;10.940;2023-06-10T14:16:10;25.70;99.60
2855;DHT22;1435;49.472;10.940;2023-06-10T14:21:12;25.70;98.90
2855;DHT22;1435;49.472;10.940;2023-06-10T14:26:14;25.70;99.50
2855;DHT22;1435;49.472;10.940;2023-06-10T14:31:17;25.60;99.50
2855;DHT22;1435;49.472;10.940;2023-06-10T14:36:18;25.50;99.20
2855;DHT22;1435;49.472;10.940;2023-06-10T14:41:20;25.50;98.80
2855;DHT22;1435;49.472;10.940;2023-06-10T14:46:24;25.50;99.90
2855;DHT22;1435;49.472;10.940;2023-06-10T14:51:25;25.60;99.70
2855;DHT22;1435;49.472;10.940;2023-06-10T14:56:27;25.80;99.90
2855;DHT22;1435;49.472;10.940;2023-06-10T15:01:31;26.00;99.90
2855;DHT22;1435;49.472;10.940;2023-06-10T15:06:32;26.10;99.60
2855;DHT22;1435;49.472;10.940;2023-06-10T15:11:34;26.10;98.50
2855;DHT22;1435;49.472;10.940;2023-06-10T15:16:39;26.20;97.70
2855;DHT22;1435;49.472;10.940;2023-06-10T15:21:41;26.30;97.40
2855;DHT22;1435;49.472;10.940;2023-06-10T15:26:47;26.40;96.20
2855;DHT22;1435;49.472;10.940;2023-06-10T15:31:54;26.40;96.30
2855;DHT22;1435;49.472;10.940;2023-06-10T15:36:56;26.50;95.80
2855;DHT22;1435;49.472;10.940;2023-06-10T15:42:03;26.50;96.40
2855;DHT22;1435;49.472;10.940;2023-06-10T15:47:10;26.60;96.20
2855;DHT22;1435;49.472;10.940;2023-06-10T15:52:14;26.80;98.30
2855;DHT22;1435;49.472;10.940;2023-06-10T15:57:16;27.00;98.30
2855;DHT22;1435;49.472;10.940;2023-06-10T16:02:20;27.10;96.10
2855;DHT22;1435;49.472;10.940;2023-06-10T16:07:22;27.10;96.00
2855;DHT22;1435;49.472;10.940;2023-06-10T16:12:24;27.00;95.70
2855;DHT22;1435;49.472;10.940;2023-06-10T16:17:27;27.00;95.30
2855;DHT22;1435;49.472;10.940;2023-06-10T16:22:28;26.80;94.40
2855;DHT22;1435;49.472;10.940;2023-06-10T16:27:30;26.60;94.40
2855;DHT22;1435;49.472;10.940;2023-06-10T16:32:33;26.50;95.10
2855;DHT22;1435;49.472;10.940;2023-06-10T16:37:35;26.50;95.00
2855;DHT22;1435;49.472;10.940;2023-06-10T16:42:36;26.40;95.00
2855;DHT22;1435;49.472;10.940;2023-06-10T16:47:39;26.30;96.00
2855;DHT22;1435;49.472;10.940;2023-06-10T16:52:41;26.50;96.00
2855;DHT22;1435;49.472;10.940;2023-06-10T16:57:43;27.10;96.00
2855;DHT22;1435;49.472;10.940;2023-06-10T17:02:46;27.50;94.60
2855;DHT22;1435;49.472;10.940;2023-06-10T17:07:47;27.90;93.80
2855;DHT22;1435;49.472;10.940;2023-06-10T17:12:50;28.10;92.70
2855;DHT22;1435;49.472;10.940;2023-06-10T17:17:53;28.10;92.80
2855;DHT22;1435;49.472;10.940;2023-06-10T17:22:54;28.10;93.20
2855;DHT22;1435;49.472;10.940;2023-06-10T17:27:56;28.20;93.20
2855;DHT22;1435;49.472;10.940;2023-06-10T17:32:59;28.20;93.00
2855;DHT22;1435;49.472;10.940;2023-06-10T17:38:01;28.20;95.60
2855;DHT22;1435;49.472;10.940;2023-06-10T17:43:02;28.30;99.10
2855;DHT22;1435;49.472;10.940;2023-06-10T17:48:05;28.10;99.30
2855;DHT22;1435;49.472;10.940;2023-06-10T17:53:07;27.80;99.90
2855;DHT22;1435;49.472;10.940;2023-06-10T17:58:08;27.30;99.90
2855;DHT22;1435;49.472;10.940;2023-06-10T18:03:11;27.10;99.90
2855;DHT22;1435;49.472;10.940;2023-06-10T18:08:13;27.30;99.90
2855;DHT22;1435;49.472;10.940;2023-06-10T18:13:15;27.50;99.90
2855;DHT22;1435;49.472;10.940;2023-06-10T18:18:18;27.80;99.90
2855;DHT22;1435;49.472;10.940;2023-06-10T18:23:20;27.60;99.90
2855;DHT22;1435;49.472;10.940;2023-06-10T18:28:22;27.10;99.90
2855;DHT22;1435;49.472;10.940;2023-06-10T18:33:26;26.70;99.90
2855;DHT22;1435;49.472;10.940;2023-06-10T18:38:31;26.30;99.90
2855;DHT22;1435;49.472;10.940;2023-06-10T18:43:32;26.00;99.90
2855;DHT22;1435;49.472;10.940;2023-06-10T18:48:35;25.70;99.90
2855;DHT22;1435;49.472;10.940;2023-06-10T18:53:37;25.50;99.90
2855;DHT22;1435;49.472;10.940;2023-06-10T18:58:39;25.20;99.90
2855;DHT22;1435;49.472;10.940;2023-06-10T19:03:42;24.90;99.90
2855;DHT22;1435;49.472;10.940;2023-06-10T19:08:44;24.70;99.90
2855;DHT22;1435;49.472;10.940;2023-06-10T19:13:46;24.50;99.90
2855;DHT22;1435;49.472;10.940;2023-06-10T19:18:50;24.30;99.90
2855;DHT22;1435;49.472;10.940;2023-06-10T19:23:52;24.10;99.90
2855;DHT22;1435;49.472;10.940;2023-06-10T19:28:54;24.00;99.90
2855;DHT22;1435;49.472;10.940;2023-06-10T19:33:57;23.80;99.90
2855;DHT22;1435;49.472;10.940;2023-06-10T19:38:59;23.50;99.90
2855;DHT22;1435;49.472;10.940;2023-06-10T19:44:00;23.50;99.90
2855;DHT22;1435;49.472;10.940;2023-06-10T19:49:03;23.50;99.90
2855;DHT22;1435;49.472;10.940;2023-06-10T19:54:06;23.50;99.90
2855;DHT22;1435;49.472;10.940;2023-06-10T19:59:08;23.50;99.90
2855;DHT22;1435;49.472;10.940;2023-06-10T20:04:11;23.40;99.90
2855;DHT22;1435;49.472;10.940;2023-06-10T20:09:13;23.50;99.90
2855;DHT22;1435;49.472;10.940;2023-06-10T20:14:14;23.50;99.90
2855;DHT22;1435;49.472;10.940;2023-06-10T20:19:17;23.30;99.90
2855;DHT22;1435;49.472;10.940;2023-06-10T20:24:19;23.00;99.90
2855;DHT22;1435;49.472;10.940;2023-06-10T20:29:21;22.90;99.90
2855;DHT22;1435;49.472;10.940;2023-06-10T20:34:24;22.90;99.90
2855;DHT22;1435;49.472;10.940;2023-06-10T20:39:26;22.80;99.90
2855;DHT22;1435;49.472;10.940;2023-06-10T20:44:28;22.80;99.90
2855;DHT22;1435;49.472;10.940;2023-06-10T20:49:31;22.90;99.90
2855;DHT22;1435;49.472;10.940;2023-06-10T20:54:32;22.80;99.90
2855;DHT22;1435;49.472;10.940;2023-06-10T20:59:34;22.70;99.90
2855;DHT22;1435;49.472;10.940;2023-06-10T21:04:37;22.40;99.90
2855;DHT22;1435;49.472;10.940;2023-06-10T21:09:39;22.40;99.90
2855;DHT22;1435;49.472;10.940;2023-06-10T21:14:40;22.40;99.90
2855;DHT22;1435;49.472;10.940;2023-06-10T21:19:43;22.30;99.90
2855;DHT22;1435;49.472;10.940;2023-06-10T21:24:45;22.20;99.90
2855;DHT22;1435;49.472;10.940;2023-06-10T21:29:47;22.20;99.90
2855;DHT22;1435;49.472;10.940;2023-06-10T21:34:50;22.20;99.90
2855;DHT22;1435;49.472;10.940;2023-06-10T21:39:51;22.10;99.90
2855;DHT22;1435;49.472;10.940;2023-06-10T21:44:53;22.10;99.90
2855;DHT22;1435;49.472;10.940;2023-06-10T21:49:56;22.20;99.90
2855;DHT22;1435;49.472;10.940;2023-06-10T21:54:58;22.20;99.90
2855;DHT22;1435;49.472;10.940;2023-06-10T21:59:59;22.20;99.90
2855;DHT22;1435;49.472;10.940;2023-06-10T22:05:03;22.20;99.90
2855;DHT22;1435;49.472;10.940;2023-06-10T22:10:05;22.10;99.90
2855;DHT22;1435;49.472;10.940;2023-06-10T22:15:07;22.10;99.90
2855;DHT22;1435;49.472;10.940;2023-06-10T22:20:11;22.00;99.90
2855;DHT22;1435;49.472;10.940;2023-06-10T22:25:14;22.00;99.90
2855;DHT22;1435;49.472;10.940;2023-06-10T22:30:16;21.90;99.90
2855;DHT22;1435;49.472;10.940;2023-06-10T22:35:19;21.80;99.90
2855;DHT22;1435;49.472;10.940;2023-06-10T22:40:20;21.80;99.90
2855;DHT22;1435;49.472;10.940;2023-06-10T22:45:22;21.70;99.90
2855;DHT22;1435;49.472;10.940;2023-06-10T22:50:25;21.70;99.90
2855;DHT22;1435;49.472;10.940;2023-06-10T22:55:27;21.70;99.90
2855;DHT22;1435;49.472;10.940;2023-06-10T23:00:29;21.60;99.90
2855;DHT22;1435;49.472;10.940;2023-06-10T23:05:32;21.50;99.90
2855;DHT22;1435;49.472;10.940;2023-06-10T23:10:33;21.50;99.90
2855;DHT22;1435;49.472;10.940;2023-06-10T23:15:35;21.40;99.90
2855;DHT22;1435;49.472;10.940;2023-06-10T23:20:38;21.20;99.90
2855;DHT22;1435;49.472;10.940;2023-06-10T23:25:40;21.00;99.90
2855;DHT22;1435;49.472;10.940;2023-06-10T23:30:45;20.80;99.90
2855;DHT22;1435;49.472;10.940;2023-06-10T23:35:49;20.60;99.90
2855;DHT22;1435;49.472;10.940;2023-06-10T23:40:51;20.40;99.90
2855;DHT22;1435;49.472;10.940;2023-06-10T23:45:52;20.30;99.90
2855;DHT22;1435;49.472;10.940;2023-06-10T23:50:55;20.20;99.90
2855;DHT22;1435;49.472;10.940;2023-06-10T23:56:00;19.90;99.90
